Terminal Aerodrome Forecast
Issued by NWS Jackson, MS

Home | Current Version | Previous Version | Text Only | Print | Product List | Glossary On
Versions: 1 2 3 4 5 6 7 8 9 10 11 12 13 14 15 16 17 18 19
000
FTUS44 KMEG 030200 AAA
TAFTUP
TAF AMD
KTUP 030206Z 0302/0324 06006KT P6SM BKN010 BKN150
      TEMPO 0303/0306 SCT010
     FM030600 VRB02KT 5SM BR SCT010 BKN250
      TEMPO 0309/0313 2SM BR SCT005
     FM031500 24005KT P6SM SCT040 SCT250=

USA.gov is the U.S. government's official web portal to all federal, state and local government web resources and services.